This is the latest recevied weather packets stored in our database for station/object OSTR-WX. If no packets are shown the sender has not sent any weather packets the latest 10 day(s).
| Time | Temp. | Humidity | Pressure | Rain* | Wind** | Luminosity | Snow |
|---|---|---|---|---|---|---|---|
| 1777140064 | 16.67° C | 46% | 1009.8 hPa | - | - | - | - |
| 1777139107 | 17.22° C | 44% | 1009.7 hPa | - | - | - | - |
| 1777138150 | 18.89° C | 42% | 1009.5 hPa | - | - | - | - |
| 1777137193 | 20.56° C | 38% | 1009.3 hPa | - | - | - | - |
| 1777136236 | 21.11° C | 37% | 1009.2 hPa | - | - | - | - |
| 1777135285 | 22.78° C | 34% | 1009.2 hPa | - | - | - | - |
| 1777135279 | 22.78° C | 34% | 1009.2 hPa | - | - | - | - |
| 1777134322 | 23.33° C | 32% | 1009.3 hPa | - | - | - | - |
| 1777133365 | 23.33° C | 35% | 1009.3 hPa | - | - | - | - |
| 1777132408 | 23.33° C | 34% | 1009.4 hPa | - | - | - | - |
| 1777131459 | 23.33° C | 35% | 1009.4 hPa | - | - | - | - |
| 1777131452 | 23.33° C | 35% | 1009.4 hPa | - | - | - | - |
| 1777130494 | 22.22° C | 35% | 1009.7 hPa | - | - | - | - |
| 1777129544 | 22.78° C | 36% | 1009.5 hPa | - | - | - | - |
| 1777129537 | 22.78° C | 36% | 1009.5 hPa | - | - | - | - |
| 1777128581 | 22.78° C | 38% | 1009.7 hPa | - | - | - | - |
| 1777127630 | 22.22° C | 36% | 1009.9 hPa | - | - | - | - |
| 1777127623 | 22.22° C | 36% | 1009.9 hPa | - | - | - | - |
| 1777126666 | 21.67° C | 39% | 1010 hPa | - | - | - | - |
| 1777125716 | 21.11° C | 39% | 1010.3 hPa | - | - | - | - |
| 1777125709 | 21.11° C | 39% | 1010.3 hPa | - | - | - | - |
| 1777124752 | 21.11° C | 40% | 1010.3 hPa | - | - | - | - |
| 1777123795 | 21.11° C | 40% | 1010.4 hPa | - | - | - | - |
| 1777122838 | 21.11° C | 39% | 1010.6 hPa | - | - | - | - |
| 1777121882 | 21.11° C | 42% | 1010.8 hPa | - | - | - | - |
* Rain since midnight (hover to see other rain measurements)
** Current wind speed in m/s (hover to see current wind gust speed)